Flight Track Log - Related Links

Times and Time Zones

All times are in EDT time to prevent confusion due to time zone crossing. See the LXJ342 flight status page for this flight to view local times or setup timezone preferences in your user account.

Time Position Orientation Groundspeed Altitude Reporting Facility
EDT Latitude Longitude Course Direction KTS MPH feet Rate Location/Type
Sun 09:27:58 AM 26.0719 -80.1783 276° West 171 197 800  Level Miami Center
Sun 09:29:17 AM 26.0803 -80.2708 276° West 262 302 4,100 1,886 Climbing Miami Center
Sun 09:30:18 AM 26.1056 -80.3503 290° West 273 314 5,200 1,426 Climbing Miami Center
Sun 09:31:19 AM 26.1414 -80.4256 298° West 281 323 7,000 2,274 Climbing Miami Center
Sun 09:32:22 AM 26.1853 -80.5100 300° West 296 341 9,900 2,780 Climbing Miami Center
Sun 09:33:22 AM 26.2228 -80.5947 296° West 301 346 12,700 2,500 Climbing Miami Center
Sun 09:34:22 AM 26.2819 -80.6497 320° Northwest 301 346 14,900 2,250 Climbing Miami Center
Sun 09:35:22 AM 26.3528 -80.7331 313° West 327 376 17,200 1,950 Climbing Miami Center
Sun 09:36:22 AM 26.3961 -80.8319 296° West 344 396 18,800 1,600 Climbing Miami Center
Sun 09:37:22 AM 26.4456 -80.9333 299° West 367 422 20,400 1,350 Climbing Miami Center
Sun 09:38:22 AM 26.5222 -81.0219 314° West 383 441 21,500 1,100 Climbing Miami Center
Sun 09:39:22 AM 26.5928 -81.1103 312° West 383 441 22,600 1,500 Climbing Miami Center
Sun 09:40:22 AM 26.6617 -81.1872 315° West 388 447 24,500 1,650 Climbing Miami Center
Sun 09:41:22 AM 26.7300 -81.2756 311° West 380 437 25,900 1,350 Climbing Miami Center
Sun 09:42:22 AM 26.7761 -81.3983 293° West 380 437 27,200 1,100 Climbing Miami Center
Sun 09:43:22 AM 26.8017 -81.5181 283° West 386 444 28,100 900 Climbing Miami Center
Sun 09:44:22 AM 26.8247 -81.6444 282° West 407 468 29,000 800 Climbing Miami Center
Sun 09:45:22 AM 26.8481 -81.7594 283° West 415 478 29,700 800 Climbing Miami Center
Sun 09:46:22 AM 26.8725 -81.8933 282° West 425 489 30,600 900 Climbing Miami Center
Sun 09:47:22 AM 26.9058 -82.0181 287° West 425 489 31,500 900 Climbing Miami Center
Sun 09:48:22 AM 26.9450 -82.1478 289° West 431 496 32,400 900 Climbing Miami Center
Sun 09:49:22 AM 26.9842 -82.2756 289° West 437 503 33,300 850 Climbing Miami Center
Sun 09:50:22 AM 27.0272 -82.4033 291° West 443 510 34,100 800 Climbing Miami Center
Sun 09:51:22 AM 27.0661 -82.5311 289° West 443 510 34,900 700 Climbing Miami Center
Sun 09:52:22 AM 27.1028 -82.6564 288° West 432 497 35,500 550 Climbing Miami Center
Sun 09:53:22 AM 27.1436 -82.7844 290° West 432 497 36,000 450 Climbing Miami Center
Sun 09:54:22 AM 27.1803 -82.9075 289° West 432 497 36,400 650 Climbing Miami Center
Sun 09:55:22 AM 27.2208 -83.0356 290° West 432 497 37,300 800 Climbing Miami Center
Sun 09:56:22 AM 27.2594 -83.1567 290° West 432 497 38,000 350 Climbing Miami Center
Sun 09:57:22 AM 27.2936 -83.2800 287° West 427 491 38,000  Level Miami Center
Sun 09:58:22 AM 27.3064 -83.4092 276° West 421 484 38,000  Level Miami Center
Sun 09:59:22 AM 27.3256 -83.5411 279° West 421 484 38,000  Level Miami Center
Sun 10:00:22 AM 27.3403 -83.6728 277° West 431 496 38,000  Level Miami Center
Sun 10:01:22 AM 27.3606 -83.8117 279° West 436 502 38,000  Level Miami Center
Sun 10:02:22 AM 27.3725 -83.9525 275° West 449 517 38,000  Level Miami Center
Sun 10:03:22 AM 27.3806 -84.0886 274° West 449 517 38,000  Level Miami Center
Sun 10:04:22 AM 27.3922 -84.2247 276° West 449 517 38,000  Level Miami Center
Sun 10:05:21 AM 27.3992 -84.3350 274° West 449 517 38,000  Level Miami Center
Sun 10:07:39 AM 27.4447 -84.6950 278° West 448 516 38,000  Level Jacksonville Center
Sun 10:08:39 AM 27.4928 -84.8292 292° West 462 532 38,000 -50 Level Jacksonville Center
Sun 10:09:40 AM 27.5514 -84.9542 298° West 457 526 37,900  Descending Jacksonville Center
Sun 10:10:39 AM 27.6100 -85.0700 300° West 445 512 38,000 50 Climbing Jacksonville Center
Sun 10:11:39 AM 27.6661 -85.1956 297° West 445 512 38,000  Level Jacksonville Center
Sun 10:12:39 AM 27.6972 -85.3203 286° West 430 495 38,000  Level Jacksonville Center
Sun 10:13:39 AM 27.7117 -85.4425 278° West 414 476 38,000  Level Jacksonville Center
Sun 10:14:39 AM 27.7253 -85.5883 276° West 430 495 38,000  Level Jacksonville Center
Sun 10:15:39 AM 27.7414 -85.7153 278° West 430 495 38,000  Level Jacksonville Center
Sun 10:16:39 AM 27.7572 -85.8469 278° West 428 493 38,000  Level Jacksonville Center
Sun 10:17:39 AM 27.7731 -85.9764 278° West 428 493 38,000  Level Jacksonville Center
Sun 10:18:39 AM 27.7906 -86.1153 278° West 436 502 38,000  Level Jacksonville Center
Sun 10:19:39 AM 27.8075 -86.2589 278° West 436 502 38,000  Level Jacksonville Center
Sun 10:20:39 AM 27.8122 -86.3953 272° West 449 517 38,000  Level Jacksonville Center
Sun 10:21:40 AM 27.7528 -86.5172 241° Southwest 424 488 38,000  Level Jacksonville Center
Sun 10:23:42 AM 27.6161 -86.7342 235° Southwest 449 517 38,000  Level Houston Center
Sun 10:24:43 AM 27.5508 -86.8622 240° Southwest 447 514 38,000  Level Houston Center
Sun 10:25:45 AM 27.4917 -86.9850 242° Southwest 447 514 38,000  Level Houston Center
Sun 10:26:46 AM 27.4336 -87.1089 242° Southwest 446 513 38,000  Level Houston Center
Sun 10:27:48 AM 27.3811 -87.2361 245° Southwest 448 516 38,000  Level Houston Center
Sun 10:28:49 AM 27.3186 -87.3914 246° West 453 521 38,000  Level Houston Center
Sun 10:29:51 AM 27.2808 -87.5289 253° West 458 527 38,000  Level Houston Center
Sun 10:30:53 AM 27.2478 -87.6700 255° West 467 537 38,000  Level Houston Center
Sun 10:31:54 AM 27.2161 -87.8006 255° West 462 532 38,000  Level Houston Center
Sun 10:32:56 AM 27.1828 -87.9500 256° West 466 536 38,000  Level Houston Center
Sun 10:33:57 AM 27.1486 -88.0936 255° West 474 545 38,000  Level Houston Center
Sun 10:34:59 AM 27.1394 -88.2611 267° West 469 540 38,000  Level Houston Center
Sun 10:36:01 AM 27.1336 -88.4078 267° West 471 542 38,000  Level Houston Center
Sun 10:37:02 AM 27.1300 -88.5522 268° West 466 536 38,000  Level Houston Center
Sun 10:38:04 AM 27.1308 -88.6944 270° West 461 531 38,000  Level Houston Center
Sun 10:39:06 AM 27.1306 -88.8367 270° West 458 527 38,000  Level Houston Center
Sun 10:40:07 AM 27.1325 -88.9722 271° West 444 511 38,000  Level Houston Center
Sun 10:41:09 AM 27.1311 -89.1086 269° West 440 506 38,000  Level Houston Center
Sun 10:42:10 AM 27.1317 -89.2467 270° West 441 507 38,000  Level Houston Center
Sun 10:43:12 AM 27.1353 -89.4089 271° West 439 505 38,000  Level Houston Center
Sun 10:44:14 AM 27.1403 -89.5411 272° West 436 502 38,000  Level Houston Center
Sun 10:45:15 AM 27.1500 -89.6733 275° West 433 498 38,000  Level Houston Center
Sun 10:46:17 AM 27.1619 -89.8053 276° West 431 496 38,000  Level Houston Center
Sun 10:47:19 AM 27.1828 -89.9386 280° West 432 497 38,000  Level Houston Center
Sun 10:48:20 AM 27.2025 -90.0747 279° West 436 502 38,000  Level Houston Center
Sun 10:49:22 AM 27.2233 -90.2136 280° West 439 505 38,000  Level Houston Center
Sun 10:50:24 AM 27.2444 -90.3792 278° West 443 510 38,000  Level Houston Center
Sun 10:51:25 AM 27.2539 -90.5189 274° West 446 513 38,000  Level Houston Center
Sun 10:52:27 AM 27.2622 -90.6572 274° West 445 512 38,000  Level Houston Center
Sun 10:53:29 AM 27.2689 -90.7975 273° West 447 514 38,000  Level Houston Center
Sun 10:54:30 AM 27.2769 -90.9361 274° West 447 514 38,000 49 Level Houston Center
Sun 10:55:32 AM 27.2869 -91.0758 275° West 447 514 38,100 339 Climbing Houston Center
Sun 10:56:34 AM 27.2944 -91.2072 274° West 439 505 38,700 537 Climbing Houston Center
Sun 10:57:35 AM 27.3078 -91.3403 276° West 433 498 39,200 488 Climbing Houston Center
Sun 10:58:37 AM 27.3408 -91.4953 284° West 428 493 39,700 387 Climbing Houston Center
Sun 10:59:39 AM 27.3908 -91.6147 295° West 424 488 40,000 145 Climbing Houston Center
Sun 11:00:41 AM 27.4386 -91.7258 296° West 425 489 40,000  Level Houston Center
Sun 11:01:42 AM 27.4906 -91.8453 296° West 426 490 40,000 -49 Level Houston Center
Sun 11:02:44 AM 27.5544 -91.9931 296° West 435 501 39,900 -48 Descending Houston Center
Sun 11:03:46 AM 27.6061 -92.1133 296° West 429 494 39,900 49 Level Houston Center
Sun 11:04:47 AM 27.6583 -92.2353 296° West 431 496 40,000 49 Climbing Houston Center
Sun 11:05:49 AM 27.7100 -92.3569 296° West 431 496 40,000 -48 Level Houston Center
Sun 11:06:51 AM 27.7633 -92.4797 296° West 433 498 39,900  Descending Houston Center
Sun 11:07:53 AM 27.8158 -92.6022 296° West 434 499 40,000 49 Climbing Houston Center
Sun 11:08:54 AM 27.8672 -92.7258 295° West 434 499 40,000  Level Houston Center
Sun 11:09:56 AM 27.9308 -92.8733 296° West 435 501 40,000  Level Houston Center
Sun 11:10:58 AM 27.9825 -92.9964 295° West 435 501 40,000  Level Houston Center
Sun 11:12:00 AM 28.0319 -93.1217 294° West 435 501 40,000  Level Houston Center
Sun 11:13:02 AM 28.0858 -93.2492 296° West 434 499 40,000  Level Houston Center
Sun 11:14:03 AM 28.1369 -93.3725 295° West 432 497 40,000  Level Houston Center
Sun 11:15:05 AM 28.1883 -93.4950 295° West 433 498 40,000  Level Houston Center
Sun 11:16:07 AM 28.2392 -93.6197 295° West 434 499 40,000  Level Houston Center
Sun 11:17:09 AM 28.2894 -93.7414 295° West 431 496 40,000  Level Houston Center
Sun 11:18:11 AM 28.3406 -93.8644 295° West 431 496 40,000  Level Houston Center
Sun 11:19:12 AM 28.4008 -94.0122 295° West 430 495 40,000  Level Houston Center
Sun 11:20:14 AM 28.4508 -94.1353 295° West 429 494 40,000 48 Level Houston Center
Sun 11:21:16 AM 28.5000 -94.2556 295° West 423 487 40,100 339 Climbing Houston Center
Sun 11:22:18 AM 28.5475 -94.3744 294° West 414 476 40,700 387 Climbing Houston Center
Sun 11:23:20 AM 28.5947 -94.4906 295° West 407 468 40,900 145 Climbing Houston Center
Sun 11:24:22 AM 28.6419 -94.6061 295° West 405 466 41,000 49 Climbing Houston Center
Sun 11:25:23 AM 28.6983 -94.7467 295° West 406 467 41,000  Level Houston Center
Sun 11:26:25 AM 28.7450 -94.8653 294° West 408 470 41,000  Level Houston Center
Sun 11:27:27 AM 28.7928 -94.9833 295° West 410 472 41,000  Level Houston Center
Sun 11:28:29 AM 28.8400 -95.1031 294° West 413 475 41,000  Level Houston Center
Sun 11:29:31 AM 28.8869 -95.2225 294° West 411 473 41,000  Level Houston Center
Sun 11:30:33 AM 28.9339 -95.3428 294° West 413 475 41,000  Level Houston Center
Sun 11:31:35 AM 28.9808 -95.4625 294° West 413 475 41,000  Level Houston Center
Sun 11:32:36 AM 29.0292 -95.5825 295° West 413 475 41,000  Level Houston Center
Sun 11:33:38 AM 29.0847 -95.7269 294° West 412 474 41,000  Level Houston Center
Sun 11:34:40 AM 29.1317 -95.8469 294° West 413 475 41,000  Level Houston Center
Sun 11:35:42 AM 29.1783 -95.9678 294° West 414 476 41,000  Level Houston Center
Sun 11:36:44 AM 29.2264 -96.0886 295° West 410 472 41,000  Level Houston Center
Sun 11:37:46 AM 29.2711 -96.2067 293° West 406 467 41,000  Level Houston Center
Sun 11:38:48 AM 29.3167 -96.3233 294° West 404 465 41,000  Level Houston Center
Sun 11:39:50 AM 29.3631 -96.4386 295° West 401 461 41,000  Level Houston Center
Sun 11:40:51 AM 29.4161 -96.5769 294° West 399 459 41,000 -49 Level Houston Center
Sun 11:41:53 AM 29.4597 -96.6933 293° West 401 461 40,900  Descending Houston Center
Sun 11:42:55 AM 29.5022 -96.8061 293° West 393 452 41,000 48 Climbing Houston Center
Sun 11:43:57 AM 29.5456 -96.9169 294° West 389 448 41,000  Level Houston Center
Sun 11:44:59 AM 29.5950 -97.0517 293° West 387 445 41,000  Level Houston Center
Sun 11:46:00 AM 29.6375 -97.1816 294° West  Level FlightAware Approximate
Sun 11:47:03 AM 29.6806 -97.2817 294° West 395 455 41,000  Level Houston Center
Sun 11:48:05 AM 29.7236 -97.3969 293° West 395 455 41,000  Level Houston Center
Sun 11:49:07 AM 29.7675 -97.5144 293° West 400 460 41,000  Level Houston Center
Sun 11:50:09 AM 29.8178 -97.6489 293° West 397 457 41,000  Level Houston Center
Sun 11:51:11 AM 29.8656 -97.7764 293° West 402 463 41,000  Level Houston Center
Sun 11:52:13 AM 29.9100 -97.8972 293° West 409 471 41,000  Level Houston Center
Sun 11:53:15 AM 29.9542 -98.0175 293° West 411 473 41,000  Level Houston Center
Sun 11:55:19 AM 30.0472 -98.2731 293° West 419 482 41,000  Level Houston Center
Sun 11:57:23 AM 30.1469 -98.5272 294° West 419 482 41,000  Level Houston Center
Sun 11:58:25 AM 30.2078 -98.6547 299° West 420 483 41,000  Level Houston Center
Sun 11:59:27 AM 30.2625 -98.7744 298° West 423 487 41,000  Level Houston Center
Sun 12:00:29 PM 30.3136 -98.8839 298° West 420 483 41,000  Level Houston Center
Sun 12:01:31 PM 30.3722 -99.0047 299° West 424 488 41,000  Level Houston Center
Sun 12:02:33 PM 30.4353 -99.1397 298° West 423 487 41,000  Level Houston Center
Sun 12:04:37 PM 30.5461 -99.3781 298° West 422 486 41,000  Level Houston Center
Sun 12:05:39 PM 30.6014 -99.4986 298° West 424 488 41,000  Level Houston Center
Sun 12:06:41 PM 30.6686 -99.6431 298° West 425 489 41,000  Level Houston Center
Sun 12:07:43 PM 30.7231 -99.7622 298° West 419 482 41,000  Level Houston Center
Sun 12:08:45 PM 30.7778 -99.8808 298° West 427 491 41,000  Level Houston Center
Sun 12:09:47 PM 30.8344 -100.0081 297° West 434 499 41,000  Level Houston Center
Sun 12:10:49 PM 30.8900 -100.1242 299° West 418 481 41,000  Level Houston Center
Sun 12:11:51 PM 30.9564 -100.2761 297° West 433 498 41,000  Level Houston Center
Sun 12:12:53 PM 31.0133 -100.4014 298° West 440 506 41,000  Level Houston Center
Sun 12:13:55 PM 31.0692 -100.5253 298° West 436 502 41,000  Level Houston Center
Sun 12:14:57 PM 31.1247 -100.6497 298° West 434 499 41,000  Level Houston Center
Sun 12:16:00 PM 31.1806 -100.7767 297° West 438 504 41,000  Level Houston Center
Sun 12:17:02 PM 31.2367 -100.9017 298° West 438 504 41,000  Level Houston Center
Sun 12:18:04 PM 31.3031 -101.0489 298° West 417 480 41,000  Level Houston Center
Sun 12:19:06 PM 31.3583 -101.1747 297° West 428 493 41,000  Level Houston Center
Sun 12:20:08 PM 31.4142 -101.3003 298° West 428 493 41,000  Level Houston Center
Sun 12:20:59 PM 31.4650 -101.4097 299° West 438 504 41,000  Level Fort Worth Center
Sun 12:21:59 PM 31.5192 -101.5389 296° West 438 504 41,000  Level Fort Worth Center
Sun 12:23:14 PM 31.5961 -101.7119 298° West 448 516 41,000  Level Houston Center
Sun 12:23:59 PM 31.6394 -101.8103 297° West 446 513 41,000 -286 Level Fort Worth Center
Sun 12:24:59 PM 31.6972 -101.9447 297° West 441 507 40,500 -500 Descending Fort Worth Center
Sun 12:25:59 PM 31.7531 -102.0744 297° West 441 507 40,000 -250 Descending Fort Worth Center
Sun 12:26:59 PM 31.8067 -102.2044 296° West 441 507 40,000  Level Fort Worth Center
Sun 12:27:59 PM 31.8603 -102.3319 296° West 441 507 40,000  Level Fort Worth Center
Sun 12:28:59 PM 31.9156 -102.4619 297° West 441 507 40,000  Level Fort Worth Center
Sun 12:29:59 PM 31.9689 -102.5900 296° West 441 507 40,000  Level Fort Worth Center
Sun 12:30:59 PM 32.0258 -102.7231 297° West 441 507 40,000  Level Fort Worth Center
Sun 12:31:59 PM 32.0786 -102.8558 295° West 446 513 40,000  Level Fort Worth Center
Sun 12:32:59 PM 32.1297 -102.9767 297° West 446 513 40,000  Level Fort Worth Center
Sun 12:33:32 PM 32.1589 -103.0439 297° West 449 517 40,000  Level Albuquerque Center
Sun 12:34:34 PM 32.2144 -103.1769 296° West 450 518 40,000  Level Albuquerque Center
Sun 12:35:36 PM 32.2686 -103.3078 296° West 445 512 40,000  Level Albuquerque Center
Sun 12:37:39 PM 32.3878 -103.5964 296° West 443 510 40,000  Level Albuquerque Center
Sun 12:38:41 PM 32.4400 -103.7278 295° West 441 507 40,000  Level Albuquerque Center
Sun 12:39:43 PM 32.4953 -103.8589 297° West 443 510 40,000  Level Albuquerque Center
Sun 12:40:45 PM 32.5497 -103.9911 296° West 445 512 40,000  Level Albuquerque Center
Sun 12:41:47 PM 32.6131 -104.1400 297° West 442 509 40,000  Level Albuquerque Center
Sun 12:42:49 PM 32.6658 -104.2719 295° West 443 510 40,000  Level Albuquerque Center
Sun 12:43:51 PM 32.7219 -104.4131 295° West 441 507 40,000  Level Albuquerque Center
Sun 12:44:53 PM 32.7747 -104.5436 296° West 438 504 40,000  Level Albuquerque Center
Sun 12:45:55 PM 32.8261 -104.6733 295° West 434 499 40,000  Level Albuquerque Center
Sun 12:46:57 PM 32.8819 -104.8153 295° West 437 503 40,000  Level Albuquerque Center
Sun 12:47:59 PM 32.9339 -104.9469 295° West 438 504 40,000  Level Albuquerque Center
Sun 12:49:01 PM 32.9911 -105.0894 296° West 442 509 40,000  Level Albuquerque Center
Sun 12:50:04 PM 33.0431 -105.2231 295° West 443 510 40,000  Level Albuquerque Center
Sun 12:51:05 PM 33.0958 -105.3558 295° West 441 507 40,000  Level Albuquerque Center
Sun 12:52:07 PM 33.1522 -105.4997 295° West 442 509 40,000  Level Albuquerque Center
Sun 12:53:09 PM 33.1978 -105.6136 296° West 444 511 40,000  Level Albuquerque Center
Sun 12:55:13 PM 33.3144 -105.9100 295° West 450 518 40,000  Level Albuquerque Center
Sun 12:56:15 PM 33.3628 -106.0403 294° West 442 509 40,000  Level Albuquerque Center
Sun 12:57:17 PM 33.4144 -106.1739 295° West 443 510 40,000  Level Albuquerque Center
Sun 12:58:19 PM 33.4647 -106.3081 294° West 443 510 40,000  Level Albuquerque Center
Sun 12:59:22 PM 33.5267 -106.4697 295° West 447 514 40,000  Level Albuquerque Center
Sun 01:00:24 PM 33.5786 -106.6064 295° West 450 518 40,000  Level Albuquerque Center
Sun 01:01:26 PM 33.6300 -106.7433 294° West 452 520 40,000  Level Albuquerque Center
Sun 01:02:28 PM 33.6817 -106.8817 294° West 455 524 40,000  Level Albuquerque Center
Sun 01:03:30 PM 33.7325 -107.0189 294° West 454 522 40,000  Level Albuquerque Center
Sun 01:04:32 PM 33.7839 -107.1569 294° West 455 524 40,000  Level Albuquerque Center
Sun 01:06:00 PM 33.8538 -107.3468 294° West  Level FlightAware Approximate
Sun 01:06:36 PM 33.8969 -107.4647 294° West 457 526 40,000  Level Albuquerque Center
Sun 01:07:38 PM 33.9489 -107.6050 294° West 460 529 40,000  Level Albuquerque Center
Sun 01:08:40 PM 33.9992 -107.7464 293° West 461 531 40,000  Level Albuquerque Center
Sun 01:09:42 PM 34.0517 -107.8872 294° West 462 532 40,000  Level Albuquerque Center
Sun 01:10:44 PM 34.1122 -108.0572 293° West 462 532 40,000  Level Albuquerque Center
Sun 01:11:46 PM 34.1667 -108.2006 295° West 461 531 40,000  Level Albuquerque Center
Sun 01:12:48 PM 34.2178 -108.3425 294° West 465 535 40,000  Level Albuquerque Center
Sun 01:13:50 PM 34.2675 -108.4836 293° West 463 533 40,000  Level Albuquerque Center
Sun 01:15:00 PM 34.3209 -108.6366 293° West  Level FlightAware Approximate
Sun 01:15:54 PM 34.3736 -108.7819 293° West 447 514 40,000  Level Albuquerque Center
Sun 01:16:56 PM 34.4200 -108.9139 293° West 446 513 40,000  Level Albuquerque Center
Sun 01:17:58 PM 34.4750 -109.0692 293° West 445 512 40,000  Level Albuquerque Center
Sun 01:19:00 PM 34.5217 -109.2039 293° West 449 517 40,000  Level Albuquerque Center
Sun 01:20:02 PM 34.5758 -109.3594 293° West 448 516 40,000  Level Albuquerque Center
Sun 01:21:04 PM 34.6222 -109.4953 293° West 450 518 40,000  Level Albuquerque Center
Sun 01:22:06 PM 34.6681 -109.6294 293° West 447 514 40,000  Level Albuquerque Center
Sun 01:23:08 PM 34.7228 -109.7856 293° West 447 514 40,000  Level Albuquerque Center
Sun 01:24:10 PM 34.7681 -109.9192 292° West 446 513 40,000  Level Albuquerque Center
Sun 01:25:12 PM 34.8206 -110.0736 293° West 443 510 40,000  Level Albuquerque Center
Sun 01:26:14 PM 34.8667 -110.2089 293° West 447 514 40,000  Level Albuquerque Center
Sun 01:27:16 PM 34.9169 -110.3625 292° West 441 507 40,000  Level Albuquerque Center
Sun 01:28:18 PM 34.9608 -110.4931 292° West 438 504 40,000 -560 Level Albuquerque Center
Sun 01:30:18 PM 35.0533 -110.7733 292° West 449 517 38,300 -1,446 Descending Los Angeles Center
Sun 01:32:27 PM 35.1578 -111.0622 294° West 433 498 34,000 -2,010 Descending Albuquerque Center
Sun 01:33:29 PM 35.1869 -111.2133 283° West 443 510 31,900 -1,694 Descending Albuquerque Center
Sun 01:34:31 PM 35.2178 -111.3614 284° West 449 517 30,500 -919 Descending Albuquerque Center
Sun 01:35:33 PM 35.2642 -111.5031 292° West 448 516 30,000 -242 Descending Albuquerque Center
Sun 01:36:35 PM 35.3125 -111.6700 290° West 454 522 30,000  Level Albuquerque Center
Sun 01:37:37 PM 35.3353 -111.8278 280° West 475 547 30,000  Level Albuquerque Center
Sun 01:38:39 PM 35.3644 -111.9864 283° West 481 554 30,000  Level Albuquerque Center
Sun 01:39:37 PM 35.3922 -112.1461 282° West 484 557 30,000  Level Los Angeles Center
Sun 01:40:40 PM 35.4192 -112.3056 282° West 482 555 30,000  Level Los Angeles Center
Sun 01:41:42 PM 35.4467 -112.4644 282° West 481 554 30,000  Level Los Angeles Center
Sun 01:42:44 PM 35.4789 -112.6517 282° West 483 556 30,000  Level Los Angeles Center
Sun 01:43:46 PM 35.5047 -112.8108 281° West 474 545 30,000 -145 Level Los Angeles Center
Sun 01:44:48 PM 35.5331 -112.9772 282° West 447 514 29,700 -871 Descending Los Angeles Center
Sun 01:45:50 PM 35.5572 -113.1283 281° West 441 507 28,200 -1,645 Descending Los Angeles Center
Sun 01:46:52 PM 35.5806 -113.2689 282° West 427 491 26,300 -1,645 Descending Los Angeles Center
Sun 01:47:54 PM 35.6039 -113.4125 281° West 432 497 24,800 -1,113 Descending Los Angeles Center
Sun 01:48:56 PM 35.6256 -113.5469 281° West 415 478 24,000 -1,248 Descending Los Angeles Center
Sun 01:49:59 PM 35.6444 -113.6814 280° West 405 466 22,200 -2,208 Descending Los Angeles Center
Sun 01:51:01 PM 35.6669 -113.8381 280° West 391 450 19,400 -2,371 Descending Los Angeles Center
Sun 01:52:03 PM 35.6856 -113.9664 280° West 385 443 17,300 -1,742 Descending Los Angeles Center
Sun 01:53:05 PM 35.7028 -114.0897 280° West 371 427 15,800 -1,545 Descending Los Angeles Center
Sun 01:53:44 PM 35.7139 -114.1708 280° West 373 429 14,700 -1,607 Descending Los Angeles Center
Sun 01:54:57 PM 35.7339 -114.3258 279° West 361 415 12,800 -1,200 Descending Los Angeles Center
Sun 01:55:59 PM 35.7861 -114.4039 310° West 316 364 12,000 -983 Descending Los Angeles Center
Sun 01:56:53 PM 35.8628 -114.4364 341° North 310 357 10,900 -1,158 Descending Los Angeles Center
Sun 01:57:53 PM 35.9386 -114.4664 342° North 288 331 9,800 -991 Descending Los Angeles Center
Sun 01:58:48 PM 36.0081 -114.4961 341° North 291 335 9,000 -735 Descending Los Angeles Center
Sun 02:00:20 PM 36.1253 -114.5247 349° North 292 336 8,000 -390 Descending Los Angeles Center
Sun 02:01:22 PM 36.2025 -114.5400 351° North 285 328 8,000 -48 Level Los Angeles Center
Sun 02:02:24 PM 36.2256 -114.6058 293° West 260 299 7,900 -484 Descending Los Angeles Center
Sun 02:03:26 PM 36.1981 -114.7044 251° West 253 291 7,000 -435 Descending Los Angeles Center
Sun 02:04:28 PM 36.1764 -114.7856 252° West 249 287 7,000 -339 Level Los Angeles Center
Sun 02:05:30 PM 36.1564 -114.8600 252° West 235 270 6,300 -740 Descending Los Angeles Center
Sun 02:06:54 PM 36.1469 -114.9583 263° West 187 215 5,200 -869 Descending Los Angeles Center
Sun 02:07:55 PM 36.1453 -115.0203 268° West 181 208 4,200 -941 Descending Los Angeles Center
Sun 02:08:36 PM 36.1444 -115.0544 268° West 186 214 3,600 -724 Descending Los Angeles Center
Sun 02:09:51 PM 36.1331 -115.1414 261° West 173 199 2,800 -629 Descending Los Angeles Center
Sun 02:10:40 PM 36.0981 -115.1569 200° South 175 201 2,300 -612 Descending Los Angeles Center
Sun 02:12:00 PM 36.0801 -115.1523 270° West  Level Estimated

Login

Don't have an account? Register now (free) for customized features, flight alerts, and more!